Time;durP1;ratioP1;P1;durP2;ratioP2;P2;SDS_P1;SDS_P2;PMS_P1;PMS_P2;Temp;Humidity;BMP_temperature;BMP_pressure;BME280_temperature;BME280_humidity;BME280_pressure;Samples;Min_cycle;Max_cycle;Signal;HPM_P1;HPM_P2
2022/03/26 00:01:04;;;;;;;33.93;23.23;;;5.40;99.90;;;;;;4999760;28;20243;-79
2022/03/26 00:03:31;;;;;;;33.70;23.57;;;5.40;99.90;;;;;;5003488;28;20210;-80
2022/03/26 00:05:59;;;;;;;35.07;24.50;;;5.30;99.90;;;;;;5001332;28;20203;-80
2022/03/26 00:08:25;;;;;;;35.47;24.87;;;5.30;99.90;;;;;;4995372;28;20199;-79
2022/03/26 00:10:54;;;;;;;38.47;25.13;;;5.20;99.90;;;;;;4986078;28;20245;-80
2022/03/26 00:13:21;;;;;;;41.00;26.93;;;5.10;99.90;;;;;;4982552;28;20205;-79
2022/03/26 00:15:48;;;;;;;38.57;26.17;;;5.10;99.90;;;;;;4987357;28;20204;-81
2022/03/26 00:18:17;;;;;;;33.87;22.73;;;5.00;99.90;;;;;;4984903;28;20220;-79
2022/03/26 00:20:45;;;;;;;33.70;22.33;;;5.00;99.90;;;;;;4988551;28;20216;-79
2022/03/26 00:23:11;;;;;;;34.50;24.70;;;4.90;99.90;;;;;;5001884;28;20208;-79
2022/03/26 00:25:38;;;;;;;35.80;21.80;;;4.90;99.90;;;;;;4981465;28;20211;-80
2022/03/26 00:28:07;;;;;;;38.93;23.60;;;4.90;99.90;;;;;;4987827;28;20224;-79
2022/03/26 00:30:35;;;;;;;39.10;22.90;;;4.90;99.90;;;;;;4979949;28;20217;-79
2022/03/26 00:33:02;;;;;;;37.70;22.07;;;4.90;99.90;;;;;;4988037;28;20198;-79
2022/03/26 00:35:29;;;;;;;40.47;22.50;;;4.90;99.90;;;;;;4984679;28;20205;-79
2022/03/26 00:37:56;;;;;;;36.30;23.50;;;4.90;99.90;;;;;;5003871;28;20717;-79
2022/03/26 00:40:23;;;;;;;34.17;22.23;;;4.90;99.90;;;;;;4983506;28;20267;-79
2022/03/26 00:42:49;;;;;;;37.37;23.13;;;4.90;99.90;;;;;;4981912;28;20198;-79
2022/03/26 00:45:18;;;;;;;34.67;22.10;;;4.90;99.90;;;;;;4986503;28;20265;-80
2022/03/26 00:47:44;;;;;;;35.00;21.93;;;4.90;99.90;;;;;;4982427;28;20201;-78
2022/03/26 00:50:11;;;;;;;34.93;22.40;;;4.90;99.90;;;;;;4975623;28;20202;-78
2022/03/26 00:52:39;;;;;;;37.77;23.27;;;4.80;99.90;;;;;;4989408;28;20256;-80
2022/03/26 00:55:07;;;;;;;38.87;23.50;;;4.70;99.90;;;;;;4976163;28;20233;-79
2022/03/26 00:57:34;;;;;;;35.17;24.20;;;4.60;99.90;;;;;;4985883;28;20202;-79
2022/03/26 01:00:00;;;;;;;38.07;24.40;;;4.50;99.90;;;;;;4985581;28;20224;-79
2022/03/26 01:02:29;;;;;;;37.67;24.67;;;4.40;99.90;;;;;;4993533;28;20201;-78
2022/03/26 01:04:55;;;;;;;35.40;23.13;;;4.40;99.90;;;;;;4979961;28;20201;-79
2022/03/26 01:07:22;;;;;;;44.33;25.97;;;4.40;99.90;;;;;;4978645;28;20199;-79
2022/03/26 01:09:49;;;;;;;41.47;26.43;;;4.40;99.90;;;;;;4987089;28;20198;-79
2022/03/26 01:12:17;;;;;;;38.37;26.13;;;4.40;99.90;;;;;;4977767;28;20721;-79
2022/03/26 01:14:44;;;;;;;37.93;26.43;;;4.40;99.90;;;;;;4990660;28;20374;-79
2022/03/26 01:17:11;;;;;;;38.93;24.43;;;4.40;99.90;;;;;;4981822;28;20198;-78
2022/03/26 01:19:39;;;;;;;39.27;23.00;;;4.40;99.90;;;;;;4995623;28;20208;-79
2022/03/26 01:22:06;;;;;;;39.47;24.90;;;4.30;99.90;;;;;;4984999;28;20229;-78
2022/03/26 01:24:33;;;;;;;37.87;24.50;;;4.30;99.90;;;;;;4981403;28;20251;-80
2022/03/26 01:27:00;;;;;;;36.33;21.73;;;4.30;99.90;;;;;;4999192;28;20265;-78
2022/03/26 01:29:27;;;;;;;34.40;22.33;;;4.20;99.90;;;;;;5002113;28;20206;-79
2022/03/26 01:31:54;;;;;;;33.83;20.97;;;4.20;99.90;;;;;;4987598;28;20209;-79
2022/03/26 01:34:22;;;;;;;32.60;20.37;;;4.10;99.90;;;;;;4980282;28;20199;-79
2022/03/26 01:36:51;;;;;;;35.63;24.33;;;4.20;99.90;;;;;;4991295;28;20221;-80
2022/03/26 01:39:20;;;;;;;36.57;24.40;;;4.10;99.90;;;;;;4979740;28;20203;-79
2022/03/26 01:41:48;;;;;;;36.80;25.43;;;4.10;99.90;;;;;;4982362;28;20220;-79
2022/03/26 01:44:15;;;;;;;38.97;25.80;;;4.00;99.90;;;;;;4998978;28;20224;-80
2022/03/26 01:46:47;;;;;;;37.40;25.47;;;3.90;99.90;;;;;;4989955;28;20225;-79
2022/03/26 01:49:14;;;;;;;33.43;23.13;;;3.90;99.90;;;;;;4982739;28;20483;-78
2022/03/26 01:51:41;;;;;;;33.10;23.23;;;3.90;99.90;;;;;;4978318;28;20220;-80
2022/03/26 01:54:10;;;;;;;37.40;26.07;;;3.80;99.90;;;;;;4984922;28;20201;-79
2022/03/26 01:56:38;;;;;;;36.13;24.97;;;3.90;99.90;;;;;;4983783;28;20206;-79
2022/03/26 01:59:06;;;;;;;38.67;24.97;;;3.90;99.90;;;;;;4985866;28;20616;-79
2022/03/26 02:01:34;;;;;;;39.47;27.70;;;3.80;99.90;;;;;;4997612;23;20495;-76
2022/03/26 02:04:01;;;;;;;40.77;26.90;;;3.80;99.90;;;;;;5000172;28;20619;-76
2022/03/26 02:06:32;;;;;;;37.23;24.33;;;3.80;99.90;;;;;;4999184;28;20283;-76
2022/03/26 02:09:01;;;;;;;33.13;23.97;;;3.80;99.90;;;;;;4998633;28;21207;-76
2022/03/26 02:11:32;;;;;;;34.63;24.37;;;3.80;99.90;;;;;;5004192;28;20270;-76
2022/03/26 02:13:58;;;;;;;37.90;25.47;;;3.70;99.90;;;;;;5003498;28;20254;-76
2022/03/26 02:16:26;;;;;;;45.13;27.53;;;3.70;99.90;;;;;;4999314;28;20214;-76
2022/03/26 02:18:53;;;;;;;37.70;26.43;;;3.70;99.90;;;;;;5001761;28;20619;-76
2022/03/26 02:21:22;;;;;;;38.40;26.23;;;3.70;99.90;;;;;;5003692;28;20480;-76
2022/03/26 02:23:50;;;;;;;37.57;26.60;;;3.70;99.90;;;;;;5002451;28;20665;-76
2022/03/26 02:26:18;;;;;;;37.00;25.97;;;3.80;99.90;;;;;;5002354;28;20459;-76
2022/03/26 02:28:45;;;;;;;38.93;26.13;;;3.70;99.90;;;;;;5003533;28;20194;-76
2022/03/26 02:31:12;;;;;;;38.60;26.83;;;3.70;99.90;;;;;;5005070;28;20216;-76
2022/03/26 02:33:39;;;;;;;35.73;25.87;;;3.70;99.90;;;;;;5000821;28;20204;-76
2022/03/26 02:36:07;;;;;;;38.33;27.17;;;3.60;99.90;;;;;;5001209;28;20472;-76
2022/03/26 02:38:36;;;;;;;42.43;29.50;;;3.50;99.90;;;;;;5003146;28;20199;-76
2022/03/26 02:41:03;;;;;;;38.13;26.60;;;3.50;99.90;;;;;;5002973;28;20744;-76
2022/03/26 02:43:29;;;;;;;35.33;26.30;;;3.40;99.90;;;;;;5004583;28;20715;-76
2022/03/26 02:45:56;;;;;;;37.97;26.93;;;3.40;99.90;;;;;;5003396;28;20456;-76
2022/03/26 02:48:23;;;;;;;38.67;27.20;;;3.40;99.90;;;;;;5003907;28;20455;-76
2022/03/26 02:50:50;;;;;;;40.20;27.03;;;3.40;99.90;;;;;;5001691;28;21003;-76
2022/03/26 02:53:17;;;;;;;36.13;26.40;;;3.40;99.90;;;;;;4999099;28;20871;-76
2022/03/26 02:55:45;;;;;;;38.80;26.07;;;3.50;99.90;;;;;;5006457;28;20201;-76
2022/03/26 02:58:12;;;;;;;42.23;26.87;;;3.50;99.90;;;;;;5001531;28;20289;-76
2022/03/26 03:00:39;;;;;;;36.10;26.10;;;3.40;99.90;;;;;;5006031;28;20471;-76
2022/03/26 03:03:08;;;;;;;38.63;26.63;;;3.40;99.90;;;;;;4998862;28;20219;-76
2022/03/26 03:05:35;;;;;;;37.03;25.47;;;3.40;99.90;;;;;;5005476;28;20259;-76
2022/03/26 03:08:02;;;;;;;39.23;26.10;;;3.40;99.90;;;;;;5002837;28;20447;-76
2022/03/26 03:10:29;;;;;;;39.70;26.83;;;3.40;99.90;;;;;;4998495;28;20686;-76
2022/03/26 03:12:58;;;;;;;38.97;26.67;;;3.40;99.90;;;;;;4999424;28;20201;-76
2022/03/26 03:15:25;;;;;;;41.97;26.63;;;3.40;99.90;;;;;;5002495;28;20853;-76
2022/03/26 03:17:52;;;;;;;39.97;25.93;;;3.40;99.90;;;;;;5001270;28;20449;-76
2022/03/26 03:20:19;;;;;;;34.27;24.03;;;3.30;99.90;;;;;;5004866;28;20497;-76
2022/03/26 03:22:46;;;;;;;38.80;26.33;;;3.20;99.90;;;;;;5001667;28;20311;-76
2022/03/26 03:25:13;;;;;;;36.57;25.50;;;3.10;99.90;;;;;;5000087;28;20504;-76
2022/03/26 03:27:40;;;;;;;37.20;26.73;;;3.10;99.90;;;;;;5003116;28;20444;-76
2022/03/26 03:30:11;;;;;;;35.90;24.90;;;3.10;99.90;;;;;;5002540;28;20192;-76
2022/03/26 03:32:37;;;;;;;41.80;27.30;;;3.00;99.90;;;;;;5001270;28;20458;-76
2022/03/26 03:35:05;;;;;;;40.40;26.70;;;3.00;99.90;;;;;;5000862;28;20517;-76
2022/03/26 03:37:36;;;;;;;36.27;25.53;;;3.10;99.90;;;;;;5006552;28;20489;-76
2022/03/26 03:40:05;;;;;;;37.53;25.80;;;3.10;99.90;;;;;;5004748;28;20451;-76
2022/03/26 03:42:32;;;;;;;34.27;24.87;;;3.10;99.90;;;;;;4997178;28;21014;-76
2022/03/26 03:44:59;;;;;;;34.87;24.67;;;3.10;99.90;;;;;;4999983;28;20464;-76
2022/03/26 03:47:27;;;;;;;33.07;24.63;;;3.20;99.90;;;;;;5002798;28;20877;-76
2022/03/26 03:49:54;;;;;;;33.83;23.17;;;3.10;99.90;;;;;;4996832;28;20453;-76
2022/03/26 03:52:21;;;;;;;37.80;25.20;;;3.10;99.90;;;;;;5007556;28;20458;-76
2022/03/26 03:54:48;;;;;;;33.30;23.37;;;3.10;99.90;;;;;;5001701;28;20440;-76
2022/03/26 03:57:15;;;;;;;39.43;25.27;;;3.10;99.90;;;;;;4991186;28;21510;-76
2022/03/26 03:59:42;;;;;;;37.00;24.60;;;3.10;99.90;;;;;;4993795;28;20485;-76
2022/03/26 04:02:10;;;;;;;36.77;24.93;;;3.00;99.90;;;;;;5001043;28;20554;-76
2022/03/26 04:04:39;;;;;;;35.93;26.27;;;3.00;99.90;;;;;;4988159;28;20488;-76
2022/03/26 04:07:07;;;;;;;36.80;26.20;;;2.90;99.90;;;;;;4981407;28;20507;-76
2022/03/26 04:09:34;;;;;;;33.73;25.00;;;2.90;99.90;;;;;;5003219;28;20546;-76
2022/03/26 04:12:01;;;;;;;39.47;25.43;;;2.80;99.90;;;;;;4995800;28;20469;-76
2022/03/26 04:14:29;;;;;;;42.30;28.43;;;2.70;99.90;;;;;;4993798;28;20448;-76
2022/03/26 04:16:56;;;;;;;35.53;25.03;;;2.70;99.90;;;;;;4998670;28;20482;-76
2022/03/26 04:19:23;;;;;;;38.67;26.97;;;2.60;99.90;;;;;;5001511;28;20436;-77
2022/03/26 04:21:51;;;;;;;36.17;24.83;;;2.60;99.90;;;;;;4993608;28;21062;-76
2022/03/26 04:24:18;;;;;;;35.30;25.30;;;2.60;99.90;;;;;;4996426;28;20440;-76
2022/03/26 04:26:45;;;;;;;36.20;25.83;;;2.50;99.90;;;;;;5000949;28;20498;-77
2022/03/26 04:29:12;;;;;;;37.50;26.47;;;2.60;99.90;;;;;;5001323;28;20466;-77
2022/03/26 04:31:38;;;;;;;37.50;25.37;;;2.60;99.90;;;;;;5006994;28;20447;-78
2022/03/26 04:34:05;;;;;;;39.33;26.93;;;2.60;99.90;;;;;;4993053;28;20462;-79
2022/03/26 04:36:33;;;;;;;37.20;26.10;;;2.60;99.90;;;;;;4992956;28;20480;-79
2022/03/26 04:39:01;;;;;;;36.17;25.50;;;2.60;99.90;;;;;;4989146;28;20454;-79
2022/03/26 04:41:28;;;;;;;36.07;25.13;;;2.60;99.90;;;;;;4994255;28;20545;-79
2022/03/26 04:43:55;;;;;;;34.47;24.33;;;2.50;99.90;;;;;;5002079;28;20446;-79
2022/03/26 04:46:22;;;;;;;34.43;24.43;;;2.50;99.90;;;;;;4991350;28;20468;-79
2022/03/26 04:48:49;;;;;;;37.20;26.27;;;2.40;99.90;;;;;;4995571;28;20451;-79
2022/03/26 04:51:16;;;;;;;40.50;27.30;;;2.30;99.90;;;;;;4998992;28;20537;-79
2022/03/26 04:53:43;;;;;;;36.17;25.50;;;2.30;99.90;;;;;;5001324;28;20518;-79
2022/03/26 04:56:11;;;;;;;41.60;24.40;;;2.30;99.90;;;;;;5004774;28;20459;-79
2022/03/26 04:58:38;;;;;;;36.60;25.13;;;2.30;99.90;;;;;;5004607;28;20496;-78
2022/03/26 05:01:05;;;;;;;39.10;26.43;;;2.20;99.90;;;;;;5002202;28;20506;-79
2022/03/26 05:03:32;;;;;;;44.00;27.63;;;2.20;99.90;;;;;;5002361;28;21006;-79
2022/03/26 05:05:59;;;;;;;37.27;25.87;;;2.20;99.90;;;;;;5001494;28;20462;-78
2022/03/26 05:08:26;;;;;;;39.43;25.57;;;2.20;99.90;;;;;;5002017;28;20982;-79
2022/03/26 05:10:53;;;;;;;40.53;27.37;;;2.20;99.90;;;;;;4999705;28;20533;-78
2022/03/26 05:13:21;;;;;;;41.77;26.13;;;2.20;99.90;;;;;;5002333;28;20539;-77
2022/03/26 05:15:48;;;;;;;36.33;25.73;;;2.10;99.90;;;;;;4998089;28;20463;-78
2022/03/26 05:18:15;;;;;;;36.23;24.90;;;2.10;99.90;;;;;;5006773;28;20479;-77
2022/03/26 05:20:42;;;;;;;40.33;26.23;;;2.20;99.90;;;;;;5000787;28;20447;-77
2022/03/26 05:23:09;;;;;;;36.23;24.83;;;2.20;99.90;;;;;;5001167;28;20564;-78
2022/03/26 05:25:36;;;;;;;42.77;24.87;;;2.20;99.90;;;;;;5003179;28;20474;-78
2022/03/26 05:28:03;;;;;;;40.37;25.33;;;2.20;99.90;;;;;;5003056;28;20459;-78
2022/03/26 05:30:31;;;;;;;36.27;25.67;;;2.20;99.90;;;;;;4997393;28;20856;-77
2022/03/26 05:32:59;;;;;;;39.13;25.93;;;2.20;99.90;;;;;;4998891;28;20502;-77
2022/03/26 05:35:26;;;;;;;39.70;28.40;;;2.20;99.90;;;;;;4992692;28;20499;-77
2022/03/26 05:37:53;;;;;;;42.80;27.87;;;2.20;99.90;;;;;;5003718;28;20450;-78
2022/03/26 05:40:22;;;;;;;39.20;27.27;;;2.20;99.90;;;;;;4994712;28;20579;-77
2022/03/26 05:42:50;;;;;;;40.23;27.83;;;2.20;99.90;;;;;;4994277;28;20925;-77
2022/03/26 05:45:18;;;;;;;42.50;27.23;;;2.20;99.90;;;;;;4992443;28;20459;-77
2022/03/26 05:47:49;;;;;;;45.20;28.93;;;2.30;99.90;;;;;;5012688;28;20462;-77
2022/03/26 05:50:16;;;;;;;43.30;29.13;;;2.40;99.90;;;;;;5005292;28;20939;-76
2022/03/26 05:52:42;;;;;;;44.97;28.93;;;2.50;99.90;;;;;;5008680;28;20550;-77
2022/03/26 05:55:10;;;;;;;38.17;28.37;;;2.70;99.90;;;;;;4996466;28;20449;-77
2022/03/26 05:57:37;;;;;;;43.70;28.43;;;2.90;99.90;;;;;;4990754;28;20449;-80
2022/03/26 06:00:06;;;;;;;41.93;29.03;;;3.10;99.90;;;;;;4996779;28;21004;-78
2022/03/26 06:02:34;;;;;;;35.20;24.90;;;3.30;99.90;;;;;;4998340;28;21319;-77
2022/03/26 06:05:02;;;;;;;39.57;27.07;;;3.50;99.90;;;;;;4995906;28;20514;-77
2022/03/26 06:07:29;;;;;;;40.93;27.17;;;3.70;99.90;;;;;;4995722;28;20521;-77
2022/03/26 06:09:56;;;;;;;45.47;27.80;;;3.90;99.90;;;;;;5001818;28;20970;-78
2022/03/26 06:12:23;;;;;;;38.93;26.10;;;4.10;99.90;;;;;;5008196;28;20505;-78
2022/03/26 06:14:50;;;;;;;43.93;28.23;;;4.40;99.90;;;;;;5006902;28;20525;-78
2022/03/26 06:17:17;;;;;;;42.63;28.67;;;4.60;99.90;;;;;;5007212;28;20254;-78
2022/03/26 06:19:44;;;;;;;41.07;28.70;;;4.70;99.90;;;;;;5006751;28;20226;-78
2022/03/26 06:22:12;;;;;;;40.37;28.70;;;5.00;99.90;;;;;;4998450;28;20223;-78
2022/03/26 06:24:39;;;;;;;44.73;28.20;;;5.30;99.90;;;;;;4991733;28;20258;-78
2022/03/26 06:27:06;;;;;;;36.77;24.77;;;5.50;99.90;;;;;;5008349;28;20202;-78
2022/03/26 06:29:34;;;;;;;36.63;24.10;;;5.80;99.90;;;;;;4997220;28;20284;-78
2022/03/26 06:32:01;;;;;;;35.90;23.00;;;6.00;99.90;;;;;;5007052;28;20301;-78
2022/03/26 06:34:28;;;;;;;36.53;23.90;;;6.20;99.90;;;;;;4996280;28;20281;-78
2022/03/26 06:36:55;;;;;;;37.07;23.53;;;6.30;99.90;;;;;;5007425;28;20249;-78
2022/03/26 06:39:24;;;;;;;37.43;24.47;;;6.40;99.90;;;;;;4997779;28;20218;-78
2022/03/26 06:41:50;;;;;;;33.23;22.37;;;6.50;99.90;;;;;;5005177;28;20644;-78
2022/03/26 06:44:17;;;;;;;38.90;26.23;;;6.70;99.90;;;;;;5006099;28;20208;-78
2022/03/26 06:46:44;;;;;;;35.23;24.40;;;6.90;99.90;;;;;;5007453;28;20261;-78
2022/03/26 06:49:11;;;;;;;36.30;23.37;;;7.00;99.90;;;;;;5009383;28;20251;-78
2022/03/26 06:51:38;;;;;;;33.83;23.90;;;7.10;99.90;;;;;;5006463;28;20227;-78
2022/03/26 06:54:06;;;;;;;37.97;25.83;;;7.30;99.90;;;;;;5010231;28;20654;-78
2022/03/26 06:56:34;;;;;;;34.53;25.23;;;7.40;99.90;;;;;;5002098;28;20712;-79
2022/03/26 06:59:01;;;;;;;32.60;24.73;;;7.60;99.90;;;;;;5000033;28;20287;-78
2022/03/26 07:01:28;;;;;;;35.43;25.90;;;7.90;99.90;;;;;;4999096;28;20237;-78
2022/03/26 07:03:58;;;;;;;33.80;23.63;;;8.20;99.90;;;;;;5005412;28;20354;-79
2022/03/26 07:06:25;;;;;;;31.90;23.50;;;8.40;99.90;;;;;;5000931;28;20229;-78
2022/03/26 07:08:53;;;;;;;36.40;26.10;;;8.70;99.90;;;;;;5002285;28;20209;-79
2022/03/26 07:11:21;;;;;;;34.90;24.63;;;8.90;99.90;;;;;;5003884;28;20316;-79
2022/03/26 07:13:49;;;;;;;37.23;25.27;;;9.20;99.90;;;;;;4995079;28;20196;-79
2022/03/26 07:16:16;;;;;;;33.23;23.23;;;9.60;99.90;;;;;;4994248;28;20206;-79
2022/03/26 07:18:43;;;;;;;39.77;23.33;;;9.90;99.90;;;;;;5001648;28;20263;-79
2022/03/26 07:21:10;;;;;;;36.73;25.33;;;10.10;99.90;;;;;;4988031;28;20245;-80
2022/03/26 07:23:36;;;;;;;36.63;23.77;;;10.30;99.90;;;;;;4991427;28;20212;-82
2022/03/26 07:26:04;;;;;;;32.40;22.90;;;10.50;99.90;;;;;;4990298;28;20225;-82
2022/03/26 07:28:31;;;;;;;36.10;24.63;;;10.90;99.90;;;;;;4999480;28;20208;-78
2022/03/26 07:30:59;;;;;;;35.70;24.93;;;11.20;99.90;;;;;;4989745;28;20725;-79
2022/03/26 07:33:27;;;;;;;34.50;26.35;;;11.40;99.90;;;;;;4988408;28;20507;-80
2022/03/26 07:35:54;;;;;;;35.57;26.63;;;11.50;99.90;;;;;;4994929;28;20224;-80
2022/03/26 07:38:21;;;;;;;34.65;25.60;;;11.60;99.90;;;;;;4994963;28;20487;-79
2022/03/26 07:40:48;;;;;;;33.03;22.90;;;11.90;99.60;;;;;;4989879;28;20197;-76
2022/03/26 07:43:15;;;;;;;34.87;22.23;;;12.20;99.10;;;;;;4987529;28;20232;-77
2022/03/26 07:45:43;;;;;;;36.33;23.90;;;12.40;97.90;;;;;;4995006;28;20201;-78
2022/03/26 07:48:11;;;;;;;36.80;24.67;;;12.40;97.80;;;;;;5002294;28;20201;-77
2022/03/26 07:50:39;;;;;;;36.03;25.37;;;12.70;97.20;;;;;;4984693;28;20201;-77
2022/03/26 07:53:06;;;;;;;35.63;23.70;;;12.80;96.70;;;;;;4994272;28;20200;-76
2022/03/26 07:55:33;;;;;;;39.60;27.77;;;13.10;96.70;;;;;;5005097;28;20439;-75
2022/03/26 07:58:00;;;;;;;35.10;24.43;;;13.10;96.80;;;;;;4995234;28;20213;-76
2022/03/26 08:00:27;;;;;;;34.40;24.50;;;13.10;97.00;;;;;;5005069;28;20193;-77
2022/03/26 08:02:55;;;;;;;32.60;23.67;;;13.30;96.50;;;;;;5001013;28;20233;-77
2022/03/26 08:05:23;;;;;;;36.33;25.73;;;13.10;96.90;;;;;;5006671;28;20208;-77
2022/03/26 08:07:50;;;;;;;36.67;25.27;;;13.30;96.80;;;;;;4996634;28;20256;-76
2022/03/26 08:10:17;;;;;;;31.90;23.57;;;13.50;96.40;;;;;;5005458;28;20204;-77
2022/03/26 08:12:44;;;;;;;34.17;24.40;;;13.90;95.90;;;;;;4998257;28;20221;-77
2022/03/26 08:15:11;;;;;;;32.57;23.03;;;14.00;95.50;;;;;;4998262;28;20198;-77
2022/03/26 08:17:38;;;;;;;33.63;23.80;;;14.10;94.70;;;;;;4998219;28;20200;-79
2022/03/26 08:20:07;;;;;;;36.60;25.17;;;14.10;94.50;;;;;;4985693;28;20213;-78
2022/03/26 08:22:36;;;;;;;39.63;25.63;;;14.20;94.80;;;;;;5002264;28;20221;-78
2022/03/26 08:25:03;;;;;;;33.30;24.20;;;14.00;94.90;;;;;;4985916;28;20255;-78
2022/03/26 08:27:30;;;;;;;33.97;24.83;;;14.20;94.80;;;;;;4991827;28;20228;-81
2022/03/26 08:29:57;;;;;;;38.13;26.93;;;14.30;94.90;;;;;;4994634;28;20202;-81
2022/03/26 08:32:24;;;;;;;35.17;25.93;;;14.20;95.10;;;;;;5003337;28;20298;-80
2022/03/26 08:34:51;;;;;;;37.23;25.47;;;14.50;95.00;;;;;;4990514;28;20196;-77
2022/03/26 08:37:18;;;;;;;34.53;25.37;;;14.80;94.60;;;;;;5001706;28;20701;-77
2022/03/26 08:39:47;;;;;;;39.30;25.80;;;14.70;95.00;;;;;;5003906;28;20626;-77
2022/03/26 08:42:14;;;;;;;34.87;26.20;;;14.50;94.10;;;;;;5012381;28;20324;-77
2022/03/26 08:44:41;;;;;;;35.90;26.30;;;14.30;94.20;;;;;;5005615;28;20202;-78
2022/03/26 08:47:08;;;;;;;41.60;26.77;;;14.30;94.70;;;;;;4996096;28;20260;-79
2022/03/26 08:49:36;;;;;;;35.57;25.07;;;14.70;95.30;;;;;;4988565;28;20670;-79
2022/03/26 08:52:04;;;;;;;34.73;25.47;;;15.00;94.80;;;;;;4989758;28;20234;-78
2022/03/26 08:54:31;;;;;;;35.47;24.80;;;14.80;94.10;;;;;;4990213;28;20202;-79
2022/03/26 08:56:59;;;;;;;36.07;25.00;;;15.10;94.80;;;;;;4990570;28;20410;-81
2022/03/26 08:59:26;;;;;;;37.23;25.97;;;15.40;94.50;;;;;;4993334;28;20259;-81
2022/03/26 09:01:52;;;;;;;37.60;26.20;;;15.50;93.40;;;;;;4988645;28;20314;-81
2022/03/26 09:04:19;;;;;;;36.47;24.57;;;15.70;93.30;;;;;;4989510;28;20254;-80
2022/03/26 09:06:50;;;;;;;37.10;24.67;;;15.90;92.50;;;;;;4982636;28;20212;-75
2022/03/26 09:09:17;;;;;;;38.37;26.20;;;15.80;92.90;;;;;;4987896;28;20204;-76
2022/03/26 09:11:44;;;;;;;42.17;27.50;;;15.80;92.30;;;;;;4989977;28;20216;-77
2022/03/26 09:14:13;;;;;;;38.97;27.33;;;15.90;92.20;;;;;;4986876;28;20274;-77
2022/03/26 09:16:40;;;;;;;33.53;24.30;;;16.10;92.20;;;;;;4989320;28;20227;-80
2022/03/26 09:19:07;;;;;;;37.77;26.83;;;16.20;92.10;;;;;;4989570;28;20255;-80
2022/03/26 09:21:34;;;;;;;33.37;25.50;;;15.90;91.50;;;;;;4992131;28;20215;-79
2022/03/26 09:24:01;;;;;;;38.10;25.40;;;16.00;91.70;;;;;;4987146;28;20213;-79
2022/03/26 09:26:28;;;;;;;39.00;24.97;;;16.20;91.60;;;;;;4991041;28;20706;-80
2022/03/26 09:28:55;;;;;;;39.40;26.63;;;16.20;92.20;;;;;;4988838;28;20207;-82
2022/03/26 09:31:23;;;;;;;37.90;26.53;;;16.30;90.90;;;;;;5004877;28;20231;-80
2022/03/26 09:33:50;;;;;;;42.00;27.97;;;16.20;90.70;;;;;;4987374;28;20741;-80
2022/03/26 09:36:17;;;;;;;38.23;25.63;;;16.10;90.50;;;;;;4998950;28;20725;-79
2022/03/26 09:38:44;;;;;;;34.23;24.37;;;16.40;91.20;;;;;;4994067;28;20200;-82
2022/03/26 09:41:11;;;;;;;37.93;25.57;;;16.50;91.20;;;;;;5000827;28;20703;-81
2022/03/26 09:43:39;;;;;;;37.57;25.60;;;16.60;90.80;;;;;;4992252;28;20347;-82
2022/03/26 09:46:06;;;;;;;41.47;26.50;;;16.80;90.10;;;;;;4990387;28;20575;-79
2022/03/26 09:48:35;;;;;;;33.37;23.87;;;16.90;90.30;;;;;;4999200;28;20219;-82
2022/03/26 09:51:02;;;;;;;36.83;25.97;;;17.30;90.20;;;;;;5003341;28;20713;-80
2022/03/26 09:53:29;;;;;;;41.10;26.10;;;17.20;89.90;;;;;;5003908;28;20208;-80
2022/03/26 09:55:57;;;;;;;34.33;23.67;;;17.20;88.60;;;;;;5006053;28;20188;-80
2022/03/26 09:58:24;;;;;;;44.80;28.53;;;17.40;90.10;;;;;;5003588;28;20254;-80
2022/03/26 10:00:53;;;;;;;41.90;27.40;;;17.20;87.70;;;;;;5004822;28;20216;-81
2022/03/26 10:03:20;;;;;;;39.75;29.67;;;17.10;88.30;;;;;;4985964;28;20503;-80
2022/03/26 10:05:48;;;;;;;39.60;29.47;;;17.10;89.50;;;;;;4985559;28;20744;-81
2022/03/26 10:08:17;;;;;;;42.33;28.13;;;16.90;88.90;;;;;;4990369;28;20198;-83
2022/03/26 10:10:45;;;;;;;41.77;27.43;;;16.90;89.50;;;;;;4990674;28;20803;-80
2022/03/26 10:13:12;;;;;;;38.00;27.50;;;16.70;89.60;;;;;;4985481;28;20462;-80
2022/03/26 10:16:00;;;;;;;31.20;24.33;;;16.70;90.10;;;;;;4997300;28;20467;-80
2022/03/26 10:18:27;;;;;;;33.07;23.77;;;17.00;90.20;;;;;;5003287;28;20210;-81
2022/03/26 10:20:59;;;;;;;33.13;23.83;;;17.30;90.30;;;;;;4994412;28;20249;-80
2022/03/26 10:23:27;;;;;;;39.77;26.53;;;17.50;90.40;;;;;;5002928;28;20220;-81
2022/03/26 10:26:05;;;;;;;35.13;25.03;;;17.40;89.10;;;;;;4990882;28;20265;-81
2022/03/26 10:28:32;;;;;;;36.57;25.90;;;17.40;88.20;;;;;;4995123;28;20190;-80
2022/03/26 10:34:07;;;;;;;38.97;25.03;;;17.20;88.60;;;;;;4993503;28;20272;-80
2022/03/26 10:36:37;;;;;;;40.97;26.03;;;17.10;88.50;;;;;;4990630;28;20192;-79
2022/03/26 10:39:05;;;;;;;39.70;27.00;;;17.30;88.20;;;;;;4992742;28;20201;-80
2022/03/26 10:41:33;;;;;;;38.40;26.57;;;17.20;88.90;;;;;;4992861;28;20895;-81
2022/03/26 10:44:08;;;;;;;39.30;27.73;;;17.20;88.90;;;;;;4998163;28;20224;-80
2022/03/26 10:46:46;;;;;;;38.77;27.27;;;17.10;86.20;;;;;;4998433;28;20250;-79
2022/03/26 10:49:14;;;;;;;40.27;25.77;;;16.90;88.10;;;;;;5006096;28;20205;-80
2022/03/26 10:51:43;;;;;;;36.93;25.93;;;17.10;88.60;;;;;;5000819;28;20232;-80
2022/03/26 10:54:11;;;;;;;37.77;25.50;;;17.10;86.90;;;;;;4995224;28;20251;-81
2022/03/26 10:56:40;;;;;;;39.10;25.73;;;17.20;86.50;;;;;;4991665;28;20587;-81
2022/03/26 10:59:07;;;;;;;40.80;25.17;;;17.30;84.50;;;;;;4999377;28;20670;-80
2022/03/26 11:01:35;;;;;;;37.43;25.80;;;17.30;85.80;;;;;;4993217;28;20232;-78
2022/03/26 11:04:03;;;;;;;40.60;26.90;;;17.40;85.20;;;;;;4994248;28;20220;-79
2022/03/26 11:06:34;;;;;;;37.80;25.30;;;17.40;84.00;;;;;;4993348;28;20235;-78
2022/03/26 11:09:03;;;;;;;37.97;23.57;;;17.40;85.20;;;;;;4997298;28;20248;-81
2022/03/26 11:11:30;;;;;;;38.60;25.20;;;17.30;84.20;;;;;;4993815;28;20245;-80
2022/03/26 11:14:03;;;;;;;30.43;21.73;;;17.30;82.90;;;;;;4991172;28;20196;-79
2022/03/26 11:17:02;;;;;;;31.73;22.73;;;17.40;84.90;;;;;;5000496;28;20270;-82
2022/03/26 11:19:38;;;;;;;32.60;23.07;;;17.60;83.50;;;;;;4982376;28;20623;-78
2022/03/26 11:22:28;;;;;;;32.43;22.10;;;17.70;82.00;;;;;;4991881;28;20233;-82
2022/03/26 11:25:32;;;;;;;33.03;23.53;;;17.80;81.80;;;;;;4991385;28;20213;-76
2022/03/26 11:28:23;;;;;;;30.33;21.47;;;17.80;79.30;;;;;;4987857;28;20254;-78
2022/03/26 11:30:55;;;;;;;33.40;22.27;;;17.80;80.20;;;;;;4995967;28;20228;-79
2022/03/26 11:33:22;;;;;;;35.00;23.77;;;17.80;80.10;;;;;;5003296;28;20208;-78
2022/03/26 11:35:56;;;;;;;38.50;23.93;;;17.80;77.10;;;;;;4999432;28;20251;-78
2022/03/26 11:38:24;;;;;;;32.90;22.50;;;17.80;77.90;;;;;;5002664;28;20224;-78
2022/03/26 11:40:54;;;;;;;31.20;22.90;;;17.90;78.60;;;;;;4997905;28;20224;-78
2022/03/26 11:44:01;;;;;;;31.17;21.97;;;17.80;76.60;;;;;;4995677;28;20221;-78
2022/03/26 11:52:25;;;;;;;29.10;21.03;;;17.70;76.80;;;;;;4999720;28;20223;-79
2022/03/26 11:54:57;;;;;;;35.33;23.23;;;17.90;76.20;;;;;;4988595;28;20200;-78
2022/03/26 11:57:26;;;;;;;33.57;23.13;;;17.80;75.50;;;;;;4988785;28;20702;-78
2022/03/26 11:59:53;;;;;;;32.70;22.90;;;17.80;75.20;;;;;;4989325;28;20692;-78
2022/03/26 12:02:26;;;;;;;31.97;22.37;;;17.60;74.30;;;;;;4995289;28;20228;-77
2022/03/26 12:04:58;;;;;;;32.60;21.77;;;17.70;74.30;;;;;;4998070;28;20228;-78
2022/03/26 12:07:30;;;;;;;33.37;23.33;;;17.70;75.60;;;;;;5001515;28;20219;-78
2022/03/26 12:10:07;;;;;;;33.53;22.07;;;17.80;75.60;;;;;;5001170;28;20245;-78
2022/03/26 12:12:46;;;;;;;33.40;21.63;;;17.80;76.50;;;;;;5000770;28;20746;-78
2022/03/26 12:15:33;;;;;;;31.80;22.80;;;17.80;76.40;;;;;;5004475;28;20287;-80
2022/03/26 12:18:15;;;;;;;34.40;22.00;;;17.90;75.60;;;;;;5002729;28;20688;-80
2022/03/26 12:20:44;;;;;;;28.10;19.97;;;17.90;72.50;;;;;;4990795;28;20283;-80
2022/03/26 12:23:12;;;;;;;28.67;20.97;;;17.90;73.20;;;;;;5001851;28;20608;-80
2022/03/26 12:25:46;;;;;;;29.27;21.27;;;17.90;73.80;;;;;;4988675;28;20205;-80
2022/03/26 12:28:13;;;;;;;30.57;21.83;;;18.00;75.10;;;;;;4999650;28;20203;-79
2022/03/26 12:30:45;;;;;;;29.20;20.60;;;18.00;75.50;;;;;;4993449;28;20194;-80
2022/03/26 12:33:14;;;;;;;31.27;21.20;;;18.00;73.40;;;;;;4993271;28;20201;-80
2022/03/26 12:35:44;;;;;;;30.15;23.85;;;18.00;73.90;;;;;;4992851;28;20440;-81
2022/03/26 12:38:11;;;;;;;25.47;19.90;;;18.00;73.40;;;;;;4992304;28;20277;-82
2022/03/26 12:40:39;;;;;;;27.17;19.77;;;18.10;74.00;;;;;;4992974;28;20209;-82
2022/03/26 12:43:09;;;;;;;29.53;20.87;;;18.10;75.30;;;;;;4995013;28;20210;-82
2022/03/26 12:45:37;;;;;;;27.37;20.43;;;18.10;71.60;;;;;;4997057;28;20217;-80
2022/03/26 12:48:10;;;;;;;26.37;19.70;;;18.00;70.80;;;;;;5003866;28;20247;-80